sensor_id;sensor_type;location;lat;lon;timestamp;P1;durP1;ratioP1;P2;durP2;ratioP2
31732;SDS011;18312;51.486;7.144;2023-11-22T00:00:52;1178.25;;;999.90;;
31732;SDS011;18312;51.486;7.144;2023-11-22T00:03:19;1177.07;;;999.90;;
31732;SDS011;18312;51.486;7.144;2023-11-22T00:05:56;1175.57;;;999.90;;
31732;SDS011;18312;51.486;7.144;2023-11-22T00:08:35;1172.68;;;999.90;;
31732;SDS011;18312;51.486;7.144;2023-11-22T00:11:07;1174.15;;;999.90;;
31732;SDS011;18312;51.486;7.144;2023-11-22T00:13:41;1173.60;;;999.90;;
31732;SDS011;18312;51.486;7.144;2023-11-22T00:16:13;1172.25;;;999.90;;
31732;SDS011;18312;51.486;7.144;2023-11-22T00:18:41;1177.72;;;999.90;;
31732;SDS011;18312;51.486;7.144;2023-11-22T00:21:09;1174.45;;;999.90;;
31732;SDS011;18312;51.486;7.144;2023-11-22T00:23:38;1176.50;;;999.90;;
31732;SDS011;18312;51.486;7.144;2023-11-22T00:26:06;1175.10;;;999.90;;
31732;SDS011;18312;51.486;7.144;2023-11-22T00:28:40;1169.13;;;999.90;;
31732;SDS011;18312;51.486;7.144;2023-11-22T00:31:08;1173.90;;;999.90;;
31732;SDS011;18312;51.486;7.144;2023-11-22T00:33:36;1173.57;;;999.90;;
31732;SDS011;18312;51.486;7.144;2023-11-22T00:36:04;1171.70;;;999.90;;
31732;SDS011;18312;51.486;7.144;2023-11-22T00:38:37;1172.93;;;999.90;;
31732;SDS011;18312;51.486;7.144;2023-11-22T00:41:04;1173.55;;;999.90;;
31732;SDS011;18312;51.486;7.144;2023-11-22T00:43:40;1171.15;;;999.90;;
31732;SDS011;18312;51.486;7.144;2023-11-22T00:46:08;1173.30;;;999.90;;
31732;SDS011;18312;51.486;7.144;2023-11-22T00:48:37;1169.30;;;999.90;;
31732;SDS011;18312;51.486;7.144;2023-11-22T00:51:05;1169.68;;;999.90;;
31732;SDS011;18312;51.486;7.144;2023-11-22T00:53:37;1172.82;;;999.90;;
31732;SDS011;18312;51.486;7.144;2023-11-22T00:56:14;1170.18;;;999.90;;
31732;SDS011;18312;51.486;7.144;2023-11-22T00:58:47;1170.10;;;999.90;;
31732;SDS011;18312;51.486;7.144;2023-11-22T01:01:19;1172.90;;;999.90;;
31732;SDS011;18312;51.486;7.144;2023-11-22T01:03:48;1165.90;;;999.90;;
31732;SDS011;18312;51.486;7.144;2023-11-22T01:06:16;1168.50;;;999.90;;
31732;SDS011;18312;51.486;7.144;2023-11-22T01:08:44;1164.28;;;999.90;;
31732;SDS011;18312;51.486;7.144;2023-11-22T01:11:13;1166.18;;;999.90;;
31732;SDS011;18312;51.486;7.144;2023-11-22T01:13:40;1165.10;;;999.90;;
31732;SDS011;18312;51.486;7.144;2023-11-22T01:16:15;1165.90;;;999.90;;
31732;SDS011;18312;51.486;7.144;2023-11-22T01:18:42;1166.43;;;999.90;;
31732;SDS011;18312;51.486;7.144;2023-11-22T01:21:19;1162.20;;;999.90;;
31732;SDS011;18312;51.486;7.144;2023-11-22T01:23:50;1160.50;;;999.90;;
31732;SDS011;18312;51.486;7.144;2023-11-22T01:26:23;1158.93;;;999.90;;
31732;SDS011;18312;51.486;7.144;2023-11-22T01:29:02;1161.90;;;999.90;;
31732;SDS011;18312;51.486;7.144;2023-11-22T01:31:29;1158.50;;;999.90;;
31732;SDS011;18312;51.486;7.144;2023-11-22T01:33:57;1158.28;;;999.90;;
31732;SDS011;18312;51.486;7.144;2023-11-22T01:39:26;1158.63;;;999.90;;
31732;SDS011;18312;51.486;7.144;2023-11-22T01:41:56;1157.03;;;999.90;;
31732;SDS011;18312;51.486;7.144;2023-11-22T01:44:24;1156.68;;;999.90;;
31732;SDS011;18312;51.486;7.144;2023-11-22T01:46:52;1159.30;;;999.90;;
31732;SDS011;18312;51.486;7.144;2023-11-22T01:49:22;1162.17;;;999.90;;
31732;SDS011;18312;51.486;7.144;2023-11-22T01:54:37;1166.70;;;999.90;;
31732;SDS011;18312;51.486;7.144;2023-11-22T01:57:16;1164.65;;;999.90;;
31732;SDS011;18312;51.486;7.144;2023-11-22T01:59:49;1171.05;;;999.90;;
31732;SDS011;18312;51.486;7.144;2023-11-22T02:02:21;1164.40;;;999.90;;
31732;SDS011;18312;51.486;7.144;2023-11-22T02:04:52;1165.78;;;999.90;;
31732;SDS011;18312;51.486;7.144;2023-11-22T02:07:21;1163.03;;;999.90;;
31732;SDS011;18312;51.486;7.144;2023-11-22T02:09:53;1162.75;;;999.90;;
31732;SDS011;18312;51.486;7.144;2023-11-22T02:12:21;1164.55;;;999.90;;
31732;SDS011;18312;51.486;7.144;2023-11-22T02:14:48;1163.95;;;999.90;;
31732;SDS011;18312;51.486;7.144;2023-11-22T02:17:16;1164.40;;;999.90;;
31732;SDS011;18312;51.486;7.144;2023-11-22T02:19:46;1163.35;;;999.90;;
31732;SDS011;18312;51.486;7.144;2023-11-22T02:22:22;1164.55;;;999.90;;
31732;SDS011;18312;51.486;7.144;2023-11-22T02:24:50;1164.47;;;999.90;;
31732;SDS011;18312;51.486;7.144;2023-11-22T02:27:17;1165.85;;;999.90;;
31732;SDS011;18312;51.486;7.144;2023-11-22T02:29:44;1163.15;;;999.90;;
31732;SDS011;18312;51.486;7.144;2023-11-22T02:32:12;1162.70;;;999.90;;
31732;SDS011;18312;51.486;7.144;2023-11-22T02:34:42;1162.30;;;999.90;;
31732;SDS011;18312;51.486;7.144;2023-11-22T02:37:16;1165.75;;;999.90;;
31732;SDS011;18312;51.486;7.144;2023-11-22T02:39:45;1163.70;;;999.90;;
31732;SDS011;18312;51.486;7.144;2023-11-22T02:42:21;1167.70;;;999.90;;
31732;SDS011;18312;51.486;7.144;2023-11-22T02:44:48;1164.40;;;999.90;;
31732;SDS011;18312;51.486;7.144;2023-11-22T02:47:27;1164.17;;;999.90;;
31732;SDS011;18312;51.486;7.144;2023-11-22T02:49:55;1162.43;;;999.90;;
31732;SDS011;18312;51.486;7.144;2023-11-22T02:52:25;1164.45;;;999.90;;
31732;SDS011;18312;51.486;7.144;2023-11-22T02:54:54;1161.65;;;999.90;;
31732;SDS011;18312;51.486;7.144;2023-11-22T02:57:22;1163.40;;;999.90;;
31732;SDS011;18312;51.486;7.144;2023-11-22T02:59:51;1164.03;;;999.90;;
31732;SDS011;18312;51.486;7.144;2023-11-22T03:02:19;1162.80;;;999.90;;
31732;SDS011;18312;51.486;7.144;2023-11-22T03:04:49;1166.07;;;999.90;;
31732;SDS011;18312;51.486;7.144;2023-11-22T03:07:20;1161.23;;;999.90;;
31732;SDS011;18312;51.486;7.144;2023-11-22T03:09:50;1161.88;;;999.90;;
31732;SDS011;18312;51.486;7.144;2023-11-22T03:12:33;1164.90;;;999.90;;
31732;SDS011;18312;51.486;7.144;2023-11-22T03:15:03;1161.22;;;999.90;;
31732;SDS011;18312;51.486;7.144;2023-11-22T03:17:32;1161.65;;;999.90;;
31732;SDS011;18312;51.486;7.144;2023-11-22T03:20:04;1158.83;;;999.90;;
31732;SDS011;18312;51.486;7.144;2023-11-22T03:22:38;1158.50;;;999.90;;
31732;SDS011;18312;51.486;7.144;2023-11-22T03:25:09;1156.70;;;999.90;;
31732;SDS011;18312;51.486;7.144;2023-11-22T03:27:41;1154.32;;;999.90;;
31732;SDS011;18312;51.486;7.144;2023-11-22T03:30:11;1150.87;;;999.90;;
31732;SDS011;18312;51.486;7.144;2023-11-22T03:32:40;1150.80;;;999.90;;
31732;SDS011;18312;51.486;7.144;2023-11-22T03:35:23;1152.90;;;999.90;;
31732;SDS011;18312;51.486;7.144;2023-11-22T03:37:56;1148.18;;;999.90;;
31732;SDS011;18312;51.486;7.144;2023-11-22T03:40:28;1147.60;;;999.90;;
31732;SDS011;18312;51.486;7.144;2023-11-22T03:43:12;1144.18;;;999.90;;
31732;SDS011;18312;51.486;7.144;2023-11-22T03:46:05;1144.53;;;999.90;;
31732;SDS011;18312;51.486;7.144;2023-11-22T03:48:36;1145.78;;;999.90;;
31732;SDS011;18312;51.486;7.144;2023-11-22T03:51:18;1143.20;;;999.90;;
31732;SDS011;18312;51.486;7.144;2023-11-22T03:53:49;1140.90;;;999.90;;
31732;SDS011;18312;51.486;7.144;2023-11-22T03:56:21;1142.88;;;999.90;;
31732;SDS011;18312;51.486;7.144;2023-11-22T03:58:53;1138.93;;;999.90;;
31732;SDS011;18312;51.486;7.144;2023-11-22T04:01:21;1140.47;;;999.90;;
31732;SDS011;18312;51.486;7.144;2023-11-22T04:03:50;1138.22;;;999.90;;
31732;SDS011;18312;51.486;7.144;2023-11-22T04:06:20;1135.25;;;999.90;;
31732;SDS011;18312;51.486;7.144;2023-11-22T04:08:49;1136.22;;;999.90;;
31732;SDS011;18312;51.486;7.144;2023-11-22T04:11:18;1136.07;;;999.90;;
31732;SDS011;18312;51.486;7.144;2023-11-22T04:13:46;1136.28;;;999.90;;
31732;SDS011;18312;51.486;7.144;2023-11-22T04:16:18;1138.80;;;999.90;;
31732;SDS011;18312;51.486;7.144;2023-11-22T04:18:46;1138.30;;;999.90;;
31732;SDS011;18312;51.486;7.144;2023-11-22T04:21:13;1133.93;;;999.90;;
31732;SDS011;18312;51.486;7.144;2023-11-22T04:23:48;1126.45;;;999.90;;
31732;SDS011;18312;51.486;7.144;2023-11-22T04:26:15;1129.15;;;999.90;;
31732;SDS011;18312;51.486;7.144;2023-11-22T04:28:42;1125.28;;;999.90;;
31732;SDS011;18312;51.486;7.144;2023-11-22T04:31:13;1130.88;;;999.90;;
31732;SDS011;18312;51.486;7.144;2023-11-22T04:33:42;1128.80;;;999.90;;
31732;SDS011;18312;51.486;7.144;2023-11-22T04:36:09;1130.18;;;999.90;;
31732;SDS011;18312;51.486;7.144;2023-11-22T04:38:37;1129.15;;;999.90;;
31732;SDS011;18312;51.486;7.144;2023-11-22T04:41:04;1127.35;;;999.90;;
31732;SDS011;18312;51.486;7.144;2023-11-22T04:43:31;1130.15;;;999.90;;
31732;SDS011;18312;51.486;7.144;2023-11-22T04:45:58;1129.82;;;999.90;;
31732;SDS011;18312;51.486;7.144;2023-11-22T04:48:25;1130.82;;;999.90;;
31732;SDS011;18312;51.486;7.144;2023-11-22T04:50:53;1125.63;;;999.90;;
31732;SDS011;18312;51.486;7.144;2023-11-22T04:53:20;1128.10;;;999.90;;
31732;SDS011;18312;51.486;7.144;2023-11-22T04:55:47;1127.50;;;999.90;;
31732;SDS011;18312;51.486;7.144;2023-11-22T04:58:14;1123.60;;;999.90;;
31732;SDS011;18312;51.486;7.144;2023-11-22T05:00:41;1124.25;;;999.90;;
31732;SDS011;18312;51.486;7.144;2023-11-22T05:03:08;1125.28;;;999.90;;
31732;SDS011;18312;51.486;7.144;2023-11-22T05:05:35;1124.40;;;999.90;;
31732;SDS011;18312;51.486;7.144;2023-11-22T05:08:03;1125.53;;;999.90;;
31732;SDS011;18312;51.486;7.144;2023-11-22T05:10:30;1123.38;;;999.90;;
31732;SDS011;18312;51.486;7.144;2023-11-22T05:12:57;1123.03;;;999.90;;
31732;SDS011;18312;51.486;7.144;2023-11-22T05:15:25;1122.82;;;999.90;;
31732;SDS011;18312;51.486;7.144;2023-11-22T05:17:52;1120.55;;;998.90;;
31732;SDS011;18312;51.486;7.144;2023-11-22T05:20:19;1122.37;;;999.90;;
31732;SDS011;18312;51.486;7.144;2023-11-22T05:22:46;1122.68;;;999.90;;
31732;SDS011;18312;51.486;7.144;2023-11-22T05:25:14;1121.32;;;999.28;;
31732;SDS011;18312;51.486;7.144;2023-11-22T05:27:41;1116.30;;;994.90;;
31732;SDS011;18312;51.486;7.144;2023-11-22T05:30:08;1116.32;;;994.03;;
31732;SDS011;18312;51.486;7.144;2023-11-22T05:32:36;1118.07;;;996.55;;
31732;SDS011;18312;51.486;7.144;2023-11-22T05:35:03;1122.15;;;999.78;;
31732;SDS011;18312;51.486;7.144;2023-11-22T05:37:34;1117.28;;;995.97;;
31732;SDS011;18312;51.486;7.144;2023-11-22T05:40:01;1118.22;;;996.70;;
31732;SDS011;18312;51.486;7.144;2023-11-22T05:42:31;1122.75;;;999.88;;
31732;SDS011;18312;51.486;7.144;2023-11-22T05:45:00;1118.53;;;996.90;;
31732;SDS011;18312;51.486;7.144;2023-11-22T05:47:27;1115.47;;;994.75;;
31732;SDS011;18312;51.486;7.144;2023-11-22T05:49:54;1118.22;;;997.35;;
31732;SDS011;18312;51.486;7.144;2023-11-22T05:52:21;1115.78;;;994.95;;
31732;SDS011;18312;51.486;7.144;2023-11-22T05:54:49;1114.05;;;993.33;;
31732;SDS011;18312;51.486;7.144;2023-11-22T05:57:16;1111.75;;;990.97;;
31732;SDS011;18312;51.486;7.144;2023-11-22T05:59:46;1114.53;;;993.80;;
31732;SDS011;18312;51.486;7.144;2023-11-22T06:02:13;1110.10;;;989.17;;
31732;SDS011;18312;51.486;7.144;2023-11-22T06:04:40;1108.28;;;987.45;;
31732;SDS011;18312;51.486;7.144;2023-11-22T06:07:07;1111.65;;;991.15;;
31732;SDS011;18312;51.486;7.144;2023-11-22T06:09:34;1109.07;;;988.88;;
31732;SDS011;18312;51.486;7.144;2023-11-22T06:12:01;1110.97;;;990.20;;
31732;SDS011;18312;51.486;7.144;2023-11-22T06:14:28;1108.63;;;988.20;;
31732;SDS011;18312;51.486;7.144;2023-11-22T06:16:56;1110.40;;;990.07;;
31732;SDS011;18312;51.486;7.144;2023-11-22T06:19:23;1106.97;;;986.67;;
31732;SDS011;18312;51.486;7.144;2023-11-22T06:21:51;1109.77;;;989.27;;
31732;SDS011;18312;51.486;7.144;2023-11-22T06:24:18;1106.85;;;986.25;;
31732;SDS011;18312;51.486;7.144;2023-11-22T06:26:45;1107.85;;;987.58;;
31732;SDS011;18312;51.486;7.144;2023-11-22T06:29:12;1107.00;;;986.78;;
31732;SDS011;18312;51.486;7.144;2023-11-22T06:31:39;1103.88;;;983.97;;
31732;SDS011;18312;51.486;7.144;2023-11-22T06:34:08;1109.43;;;988.38;;
31732;SDS011;18312;51.486;7.144;2023-11-22T06:36:35;1108.07;;;987.05;;
31732;SDS011;18312;51.486;7.144;2023-11-22T06:39:03;1107.03;;;986.67;;
31732;SDS011;18312;51.486;7.144;2023-11-22T06:41:31;1105.72;;;985.75;;
31732;SDS011;18312;51.486;7.144;2023-11-22T06:43:58;1106.37;;;985.20;;
31732;SDS011;18312;51.486;7.144;2023-11-22T06:46:27;1104.13;;;984.15;;
31732;SDS011;18312;51.486;7.144;2023-11-22T06:49:01;1102.70;;;982.38;;
31732;SDS011;18312;51.486;7.144;2023-11-22T06:51:30;1102.05;;;981.85;;
31732;SDS011;18312;51.486;7.144;2023-11-22T06:53:58;1102.57;;;982.20;;
31732;SDS011;18312;51.486;7.144;2023-11-22T06:56:25;1102.07;;;981.60;;
31732;SDS011;18312;51.486;7.144;2023-11-22T06:58:52;1096.95;;;977.00;;
31732;SDS011;18312;51.486;7.144;2023-11-22T07:01:22;1095.25;;;975.33;;
31732;SDS011;18312;51.486;7.144;2023-11-22T07:03:51;1097.13;;;976.97;;
31732;SDS011;18312;51.486;7.144;2023-11-22T07:06:20;1092.88;;;972.97;;
31732;SDS011;18312;51.486;7.144;2023-11-22T07:08:49;1093.40;;;973.50;;
31732;SDS011;18312;51.486;7.144;2023-11-22T07:11:23;1091.07;;;971.40;;
31732;SDS011;18312;51.486;7.144;2023-11-22T07:13:58;1091.93;;;972.13;;
31732;SDS011;18312;51.486;7.144;2023-11-22T07:16:29;1091.40;;;971.30;;
31732;SDS011;18312;51.486;7.144;2023-11-22T07:18:58;1093.20;;;973.13;;
31732;SDS011;18312;51.486;7.144;2023-11-22T07:21:31;1092.57;;;973.05;;
31732;SDS011;18312;51.486;7.144;2023-11-22T07:24:06;1090.88;;;970.90;;
31732;SDS011;18312;51.486;7.144;2023-11-22T07:26:40;1091.35;;;971.47;;
31732;SDS011;18312;51.486;7.144;2023-11-22T07:29:13;1091.28;;;971.20;;
31732;SDS011;18312;51.486;7.144;2023-11-22T07:31:45;1099.60;;;979.55;;
31732;SDS011;18312;51.486;7.144;2023-11-22T07:34:26;1093.03;;;973.78;;
31732;SDS011;18312;51.486;7.144;2023-11-22T07:37:15;1090.90;;;971.67;;
31732;SDS011;18312;51.486;7.144;2023-11-22T07:39:54;1093.13;;;973.58;;
31732;SDS011;18312;51.486;7.144;2023-11-22T07:42:36;1092.25;;;972.83;;
31732;SDS011;18312;51.486;7.144;2023-11-22T07:45:26;1095.60;;;975.60;;
31732;SDS011;18312;51.486;7.144;2023-11-22T07:47:59;1093.00;;;973.17;;
31732;SDS011;18312;51.486;7.144;2023-11-22T07:50:28;1095.13;;;974.88;;
31732;SDS011;18312;51.486;7.144;2023-11-22T07:53:01;1095.50;;;975.58;;
31732;SDS011;18312;51.486;7.144;2023-11-22T07:55:35;1096.35;;;976.30;;
31732;SDS011;18312;51.486;7.144;2023-11-22T07:58:11;1096.30;;;976.00;;
31732;SDS011;18312;51.486;7.144;2023-11-22T08:00:47;1100.22;;;979.95;;
31732;SDS011;18312;51.486;7.144;2023-11-22T08:03:20;1098.70;;;978.58;;
31732;SDS011;18312;51.486;7.144;2023-11-22T08:05:53;1103.93;;;983.25;;
31732;SDS011;18312;51.486;7.144;2023-11-22T08:08:23;1108.90;;;987.90;;
31732;SDS011;18312;51.486;7.144;2023-11-22T08:10:55;1110.70;;;989.70;;
31732;SDS011;18312;51.486;7.144;2023-11-22T08:13:24;1109.38;;;988.50;;
31732;SDS011;18312;51.486;7.144;2023-11-22T08:15:52;1111.40;;;990.90;;
31732;SDS011;18312;51.486;7.144;2023-11-22T08:18:22;1115.25;;;993.88;;
31732;SDS011;18312;51.486;7.144;2023-11-22T08:20:52;1115.28;;;994.30;;
31732;SDS011;18312;51.486;7.144;2023-11-22T08:23:21;1115.28;;;994.22;;
31732;SDS011;18312;51.486;7.144;2023-11-22T08:25:53;1119.75;;;998.47;;
31732;SDS011;18312;51.486;7.144;2023-11-22T08:28:24;1121.22;;;999.58;;
31732;SDS011;18312;51.486;7.144;2023-11-22T08:30:55;1120.23;;;999.03;;
31732;SDS011;18312;51.486;7.144;2023-11-22T08:33:34;1123.13;;;999.90;;
31732;SDS011;18312;51.486;7.144;2023-11-22T08:36:02;1124.97;;;999.90;;
31732;SDS011;18312;51.486;7.144;2023-11-22T08:38:31;1126.25;;;999.90;;
31732;SDS011;18312;51.486;7.144;2023-11-22T08:41:02;1126.70;;;999.90;;
31732;SDS011;18312;51.486;7.144;2023-11-22T08:43:30;1128.93;;;999.90;;
31732;SDS011;18312;51.486;7.144;2023-11-22T08:45:58;1130.57;;;999.90;;
31732;SDS011;18312;51.486;7.144;2023-11-22T08:48:26;1132.60;;;999.90;;
31732;SDS011;18312;51.486;7.144;2023-11-22T08:50:54;1135.00;;;999.90;;
31732;SDS011;18312;51.486;7.144;2023-11-22T08:53:22;1136.15;;;999.90;;
31732;SDS011;18312;51.486;7.144;2023-11-22T08:55:49;1141.60;;;999.90;;
31732;SDS011;18312;51.486;7.144;2023-11-22T08:58:22;1133.50;;;999.90;;
31732;SDS011;18312;51.486;7.144;2023-11-22T09:00:50;1136.63;;;999.90;;
31732;SDS011;18312;51.486;7.144;2023-11-22T09:03:18;1140.28;;;999.90;;
31732;SDS011;18312;51.486;7.144;2023-11-22T09:05:48;1143.40;;;999.90;;
31732;SDS011;18312;51.486;7.144;2023-11-22T09:08:18;1146.35;;;999.90;;
31732;SDS011;18312;51.486;7.144;2023-11-22T09:10:46;1148.20;;;999.90;;
31732;SDS011;18312;51.486;7.144;2023-11-22T09:13:13;1149.70;;;999.90;;
31732;SDS011;18312;51.486;7.144;2023-11-22T09:15:46;1153.70;;;999.90;;
31732;SDS011;18312;51.486;7.144;2023-11-22T09:18:20;1155.90;;;999.90;;
31732;SDS011;18312;51.486;7.144;2023-11-22T09:20:50;1158.88;;;999.90;;
31732;SDS011;18312;51.486;7.144;2023-11-22T09:23:17;1158.28;;;999.90;;
31732;SDS011;18312;51.486;7.144;2023-11-22T09:25:51;1159.70;;;999.90;;
31732;SDS011;18312;51.486;7.144;2023-11-22T09:28:21;1162.17;;;999.90;;
31732;SDS011;18312;51.486;7.144;2023-11-22T09:30:52;1165.55;;;999.90;;
31732;SDS011;18312;51.486;7.144;2023-11-22T09:33:37;1164.15;;;999.90;;
31732;SDS011;18312;51.486;7.144;2023-11-22T09:36:28;1168.45;;;999.90;;
31732;SDS011;18312;51.486;7.144;2023-11-22T09:42:20;1166.97;;;999.90;;
31732;SDS011;18312;51.486;7.144;2023-11-22T09:45:02;1171.65;;;999.90;;
31732;SDS011;18312;51.486;7.144;2023-11-22T09:48:04;1172.90;;;999.90;;
31732;SDS011;18312;51.486;7.144;2023-11-22T09:51:09;1171.78;;;999.90;;
31732;SDS011;18312;51.486;7.144;2023-11-22T09:53:47;1174.23;;;999.90;;
31732;SDS011;18312;51.486;7.144;2023-11-22T09:56:19;1177.10;;;999.90;;
31732;SDS011;18312;51.486;7.144;2023-11-22T09:58:46;1176.90;;;999.90;;
31732;SDS011;18312;51.486;7.144;2023-11-22T10:01:19;1179.93;;;999.90;;
31732;SDS011;18312;51.486;7.144;2023-11-22T10:03:49;1179.93;;;999.90;;
31732;SDS011;18312;51.486;7.144;2023-11-22T10:06:16;1180.75;;;999.90;;
31732;SDS011;18312;51.486;7.144;2023-11-22T10:08:43;1179.25;;;999.90;;
31732;SDS011;18312;51.486;7.144;2023-11-22T10:11:12;1176.90;;;999.90;;
31732;SDS011;18312;51.486;7.144;2023-11-22T10:13:42;1180.70;;;999.90;;
31732;SDS011;18312;51.486;7.144;2023-11-22T10:16:11;1180.60;;;999.90;;
31732;SDS011;18312;51.486;7.144;2023-11-22T10:18:41;1186.00;;;999.90;;
31732;SDS011;18312;51.486;7.144;2023-11-22T10:21:20;1186.57;;;999.90;;
31732;SDS011;18312;51.486;7.144;2023-11-22T10:23:49;1186.57;;;999.90;;
31732;SDS011;18312;51.486;7.144;2023-11-22T10:26:17;1187.55;;;999.90;;
31732;SDS011;18312;51.486;7.144;2023-11-22T10:28:45;1194.27;;;999.90;;
31732;SDS011;18312;51.486;7.144;2023-11-22T10:31:11;1190.45;;;999.90;;
31732;SDS011;18312;51.486;7.144;2023-11-22T10:33:39;1184.30;;;999.90;;
31732;SDS011;18312;51.486;7.144;2023-11-22T10:36:07;1191.70;;;999.90;;
31732;SDS011;18312;51.486;7.144;2023-11-22T10:38:35;1184.70;;;999.90;;
31732;SDS011;18312;51.486;7.144;2023-11-22T10:41:06;1183.90;;;999.90;;
31732;SDS011;18312;51.486;7.144;2023-11-22T10:43:34;1188.22;;;999.90;;
31732;SDS011;18312;51.486;7.144;2023-11-22T10:46:02;1186.90;;;999.90;;
31732;SDS011;18312;51.486;7.144;2023-11-22T10:48:30;1185.55;;;999.90;;
31732;SDS011;18312;51.486;7.144;2023-11-22T10:50:58;1184.15;;;999.90;;
31732;SDS011;18312;51.486;7.144;2023-11-22T10:53:30;1183.70;;;999.90;;
31732;SDS011;18312;51.486;7.144;2023-11-22T10:56:02;1184.88;;;999.90;;
31732;SDS011;18312;51.486;7.144;2023-11-22T10:58:36;1188.78;;;999.90;;
31732;SDS011;18312;51.486;7.144;2023-11-22T11:01:12;1186.53;;;999.90;;
31732;SDS011;18312;51.486;7.144;2023-11-22T11:03:41;1187.28;;;999.90;;
31732;SDS011;18312;51.486;7.144;2023-11-22T11:06:14;1190.38;;;999.90;;
31732;SDS011;18312;51.486;7.144;2023-11-22T11:08:46;1192.93;;;999.90;;
31732;SDS011;18312;51.486;7.144;2023-11-22T11:11:15;1196.50;;;999.90;;
31732;SDS011;18312;51.486;7.144;2023-11-22T11:13:43;1196.47;;;999.90;;
31732;SDS011;18312;51.486;7.144;2023-11-22T11:16:13;1197.22;;;999.90;;
31732;SDS011;18312;51.486;7.144;2023-11-22T11:18:41;1196.28;;;999.90;;
31732;SDS011;18312;51.486;7.144;2023-11-22T11:21:08;1196.57;;;999.90;;
31732;SDS011;18312;51.486;7.144;2023-11-22T11:23:38;1197.53;;;999.90;;
31732;SDS011;18312;51.486;7.144;2023-11-22T11:26:09;1197.30;;;999.90;;
31732;SDS011;18312;51.486;7.144;2023-11-22T11:28:44;1200.25;;;999.90;;
31732;SDS011;18312;51.486;7.144;2023-11-22T11:31:12;1204.40;;;999.90;;
31732;SDS011;18312;51.486;7.144;2023-11-22T11:33:53;1208.90;;;999.90;;
31732;SDS011;18312;51.486;7.144;2023-11-22T11:36:21;1210.50;;;999.90;;
31732;SDS011;18312;51.486;7.144;2023-11-22T11:38:50;1209.60;;;999.90;;
31732;SDS011;18312;51.486;7.144;2023-11-22T11:41:23;1211.97;;;999.90;;
31732;SDS011;18312;51.486;7.144;2023-11-22T11:43:52;1209.22;;;999.90;;
31732;SDS011;18312;51.486;7.144;2023-11-22T11:46:19;1209.57;;;999.90;;
31732;SDS011;18312;51.486;7.144;2023-11-22T11:48:48;1207.93;;;999.90;;
31732;SDS011;18312;51.486;7.144;2023-11-22T11:51:15;1211.45;;;999.90;;
31732;SDS011;18312;51.486;7.144;2023-11-22T11:53:44;1212.50;;;999.90;;
31732;SDS011;18312;51.486;7.144;2023-11-22T11:56:11;1213.03;;;999.90;;
31732;SDS011;18312;51.486;7.144;2023-11-22T11:58:39;1214.03;;;999.90;;
31732;SDS011;18312;51.486;7.144;2023-11-22T12:01:07;1217.93;;;999.90;;
31732;SDS011;18312;51.486;7.144;2023-11-22T12:03:35;1215.00;;;999.90;;
31732;SDS011;18312;51.486;7.144;2023-11-22T12:06:03;1215.80;;;999.90;;
31732;SDS011;18312;51.486;7.144;2023-11-22T12:08:30;1213.90;;;999.90;;
31732;SDS011;18312;51.486;7.144;2023-11-22T12:11:01;1215.43;;;999.90;;
31732;SDS011;18312;51.486;7.144;2023-11-22T12:13:37;1206.43;;;999.90;;
31732;SDS011;18312;51.486;7.144;2023-11-22T12:16:41;1206.75;;;999.90;;
31732;SDS011;18312;51.486;7.144;2023-11-22T12:23:01;1207.82;;;999.90;;
31732;SDS011;18312;51.486;7.144;2023-11-22T12:25:54;1203.63;;;999.90;;
31732;SDS011;18312;51.486;7.144;2023-11-22T12:28:57;1209.07;;;999.90;;
31732;SDS011;18312;51.486;7.144;2023-11-22T12:31:43;1203.57;;;999.90;;
31732;SDS011;18312;51.486;7.144;2023-11-22T12:34:36;1208.15;;;999.90;;
31732;SDS011;18312;51.486;7.144;2023-11-22T12:37:20;1209.28;;;999.90;;
31732;SDS011;18312;51.486;7.144;2023-11-22T12:39:50;1203.78;;;999.90;;
31732;SDS011;18312;51.486;7.144;2023-11-22T12:46:10;1210.82;;;999.90;;
31732;SDS011;18312;51.486;7.144;2023-11-22T12:48:44;1211.25;;;999.90;;
31732;SDS011;18312;51.486;7.144;2023-11-22T12:52:07;1213.50;;;999.90;;
31732;SDS011;18312;51.486;7.144;2023-11-22T12:58:40;1221.80;;;999.90;;
31732;SDS011;18312;51.486;7.144;2023-11-22T13:07:38;1229.28;;;999.90;;
31732;SDS011;18312;51.486;7.144;2023-11-22T13:10:08;1230.63;;;999.90;;
31732;SDS011;18312;51.486;7.144;2023-11-22T13:12:35;1229.32;;;999.90;;
31732;SDS011;18312;51.486;7.144;2023-11-22T13:15:02;1228.93;;;999.90;;
31732;SDS011;18312;51.486;7.144;2023-11-22T13:17:30;1228.38;;;999.90;;
31732;SDS011;18312;51.486;7.144;2023-11-22T13:19:56;1230.57;;;999.90;;
31732;SDS011;18312;51.486;7.144;2023-11-22T13:22:23;1230.00;;;999.90;;
31732;SDS011;18312;51.486;7.144;2023-11-22T13:24:51;1230.38;;;999.90;;
31732;SDS011;18312;51.486;7.144;2023-11-22T13:27:18;1232.82;;;999.90;;
31732;SDS011;18312;51.486;7.144;2023-11-22T13:29:45;1233.82;;;999.90;;
31732;SDS011;18312;51.486;7.144;2023-11-22T13:32:12;1232.20;;;999.90;;
31732;SDS011;18312;51.486;7.144;2023-11-22T13:34:39;1236.85;;;999.90;;
31732;SDS011;18312;51.486;7.144;2023-11-22T13:37:05;1235.25;;;999.90;;
31732;SDS011;18312;51.486;7.144;2023-11-22T13:39:32;1233.47;;;999.90;;
31732;SDS011;18312;51.486;7.144;2023-11-22T13:42:00;1231.78;;;999.90;;
31732;SDS011;18312;51.486;7.144;2023-11-22T13:44:27;1233.05;;;999.90;;
31732;SDS011;18312;51.486;7.144;2023-11-22T13:46:54;1228.55;;;999.90;;
31732;SDS011;18312;51.486;7.144;2023-11-22T13:49:23;1228.93;;;999.90;;
31732;SDS011;18312;51.486;7.144;2023-11-22T13:51:50;1230.10;;;999.90;;
31732;SDS011;18312;51.486;7.144;2023-11-22T13:54:17;1228.03;;;999.90;;
31732;SDS011;18312;51.486;7.144;2023-11-22T13:56:44;1228.63;;;999.90;;
31732;SDS011;18312;51.486;7.144;2023-11-22T13:59:12;1227.18;;;999.90;;
31732;SDS011;18312;51.486;7.144;2023-11-22T14:01:39;1224.25;;;999.90;;
31732;SDS011;18312;51.486;7.144;2023-11-22T14:04:05;1224.50;;;999.90;;
31732;SDS011;18312;51.486;7.144;2023-11-22T14:06:32;1226.18;;;999.90;;
31732;SDS011;18312;51.486;7.144;2023-11-22T14:08:59;1224.70;;;999.90;;
31732;SDS011;18312;51.486;7.144;2023-11-22T14:11:26;1224.70;;;999.90;;
31732;SDS011;18312;51.486;7.144;2023-11-22T14:13:52;1222.07;;;999.90;;
31732;SDS011;18312;51.486;7.144;2023-11-22T14:16:20;1226.07;;;999.90;;
31732;SDS011;18312;51.486;7.144;2023-11-22T14:18:47;1226.15;;;999.90;;
31732;SDS011;18312;51.486;7.144;2023-11-22T14:21:14;1224.38;;;999.90;;
31732;SDS011;18312;51.486;7.144;2023-11-22T14:23:42;1226.93;;;999.90;;
31732;SDS011;18312;51.486;7.144;2023-11-22T14:26:09;1224.32;;;999.90;;
31732;SDS011;18312;51.486;7.144;2023-11-22T14:28:36;1224.60;;;999.90;;
31732;SDS011;18312;51.486;7.144;2023-11-22T14:31:04;1220.68;;;999.90;;